Flight Track Log - Related Links

Times and Time Zones

All times are in EDT time to prevent confusion due to time zone crossing. See the N781RM flight status page for this flight to view local times or setup timezone preferences in your user account.


Time Position Orientation Groundspeed Altitude Reporting Facility
EDT Latitude Longitude Course Direction KTS MPH feet Rate Location/Type
Tue 10:05:37 AM 24.8183 -81.0869 336° Northwest 160 184 1,900  Level Miami Center
Tue 10:06:37 AM 24.8492 -81.1019 340° North 141 162 2,500 550 Climbing Miami Center
Tue 10:07:37 AM 24.8803 -81.1144 337° Northwest 128 147 3,000 500 Climbing Miami Center
Tue 10:08:37 AM 24.9111 -81.1292 340° North 122 140 3,500 450 Climbing Miami Center
Tue 10:09:37 AM 24.9419 -81.1417 340° North 117 135 3,900 450 Climbing Miami Center
Tue 10:10:37 AM 24.9731 -81.1542 343° North 117 135 4,400 500 Climbing Miami Center
Tue 10:11:37 AM 25.0042 -81.1644 343° North 112 129 4,900 500 Climbing Miami Center
Tue 10:12:37 AM 25.0350 -81.1747 340° North 112 129 5,400 500 Climbing Miami Center
Tue 10:13:37 AM 25.0661 -81.1872 345° North 112 129 5,900 200 Climbing Miami Center
Tue 10:14:37 AM 25.1014 -81.1978 344° North 112 129 5,800 50 Descending Miami Center
Tue 10:15:37 AM 25.1406 -81.2106 342° North 131 151 6,000 100 Climbing Miami Center
Tue 10:16:37 AM 25.1819 -81.2258 344° North 143 165 6,000 100 Level Miami Center
Tue 10:17:37 AM 25.2211 -81.2386 344° North 148 170 6,200 50 Climbing Miami Center
Tue 10:18:37 AM 25.2625 -81.2517 342° North 148 170 6,100 -100 Descending Miami Center
Tue 10:19:37 AM 25.3061 -81.2669 338° Northwest 153 176 6,000  Descending Miami Center
Tue 10:20:37 AM 25.3450 -81.2844 335° Northwest 153 176 6,100  Climbing Miami Center
Tue 10:21:37 AM 25.3883 -81.3067 341° North 148 170 6,000 -50 Descending Miami Center
Tue 10:22:37 AM 25.4275 -81.3219 339° North 155 178 6,000  Level Miami Center
Tue 10:23:37 AM 25.4689 -81.3397 341° North 155 178 6,000  Level Miami Center
Tue 10:24:37 AM 25.5081 -81.3550 337° Northwest 155 178 6,000  Level Miami Center
Tue 10:25:37 AM 25.5492 -81.3747 341° North 150 173 6,000  Level Miami Center
Tue 10:26:37 AM 25.5906 -81.3903 341° North 150 173 6,000  Level Miami Center
Tue 10:27:37 AM 25.6317 -81.4056 337° Northwest 150 173 6,000  Level Miami Center
Tue 10:28:37 AM 25.6750 -81.4256 341° North 150 173 6,000  Level Miami Center
Tue 10:29:37 AM 25.7142 -81.4408 341° North 150 173 6,000  Level Miami Center
Tue 10:30:37 AM 25.7556 -81.4564 329° Northwest 150 173 6,000  Level Miami Center
Tue 10:31:37 AM 25.7922 -81.4808 341° North 144 166 6,000 -50 Level Miami Center
Tue 10:32:37 AM 25.8314 -81.4961 347° North 149 171 5,900  Descending Miami Center
Tue 10:33:37 AM 25.8728 -81.5069 337° Northwest 150 173 6,000  Climbing Miami Center
Tue 10:34:37 AM 25.9100 -81.5247 313° West 145 167 5,900 -50 Descending Miami Center
Tue 10:35:37 AM 25.9400 -81.5603 329° Northwest 151 174 5,900  Level Miami Center
Tue 10:36:37 AM 25.9769 -81.5850 326° Northwest 151 174 5,900  Level Miami Center
Tue 10:37:37 AM 26.0094 -81.6094 333° Northwest 151 174 5,900  Level Miami Center
Tue 10:38:37 AM 26.0483 -81.6317 335° Northwest 151 174 5,900  Level Miami Center
Tue 10:39:37 AM 26.0875 -81.6517 335° Northwest 146 168 5,900 Level Miami Center
Tue 11:01:27 AM 26.9333 -82.1000 336° Northwest 153 176 6,000 Climbing Tampa TRACON
Tue 11:02:27 AM 26.9667 -82.1167 318° Northwest 155 178 6,000  Level Tampa TRACON
Tue 11:03:27 AM 27.0000 -82.1500 318° Northwest 162 186 6,000  Level Tampa TRACON
Tue 11:04:27 AM 27.0333 -82.1833 336° Northwest 153 176 6,000  Level Tampa TRACON
Tue 11:05:27 AM 27.0667 -82.2000 329° Northwest 151 174 6,000  Level Tampa TRACON
Tue 11:06:33 AM 27.1167 -82.2333 336° Northwest 154 177 6,000 50 Level Tampa TRACON
Tue 11:07:27 AM 27.1500 -82.2500 336° Northwest 151 174 6,100  Climbing Tampa TRACON
Tue 11:08:27 AM 27.1833 -82.2667 318° Northwest 152 175 6,000 -300 Descending Tampa TRACON
Tue 11:09:27 AM 27.2167 -82.3000 343° North 162 186 5,500 -550 Descending Tampa TRACON
Tue 11:10:27 AM 27.2667 -82.3167 318° Northwest 172 198 4,900 -600 Descending Tampa TRACON
Tue 11:11:27 AM 27.3000 -82.3500 344° North 169 194 4,300 -619 Descending Tampa TRACON
Tue 11:12:33 AM 27.3500 -82.3667 318° Northwest 169 194 3,600 -650 Descending Tampa TRACON
Tue 11:13:27 AM 27.3833 -82.4000 329° Northwest 173 199 3,000 -500 Descending Tampa TRACON
Tue 11:14:33 AM 27.4333 -82.4333 336° Northwest 164 189 2,600 -200 Descending Tampa TRACON
Tue 11:15:27 AM 27.4667 -82.4500 336° Northwest 147 169 2,600  Level Tampa TRACON
Tue 11:16:27 AM 27.5000 -82.4667 318° Northwest 141 162 2,600 -209 Level Tampa TRACON
Tue 11:17:22 AM 27.5333 -82.5000 344° North 159 183 2,200 -476 Descending Tampa TRACON
Tue 11:18:33 AM 27.5833 -82.5167 318° Northwest 155 178 1,600 -300 Descending Tampa TRACON
Tue 11:19:22 AM 27.6000 -82.5333 318° Northwest 147 169 1,600  Level Tampa TRACON
Tue 11:20:28 AM 27.6333 -82.5667 336° Northwest 135 155 1,600 -100 Level Tampa TRACON
Tue 11:21:22 AM 27.6667 -82.5833 318° Northwest 146 168 1,400 -211 Descending Tampa TRACON
Tue 11:22:22 AM 27.7000 -82.6167 318° Northwest 134 154 1,200 -200 Descending Tampa TRACON
Tue 11:23:22 AM 27.7333 -82.6500 360° North 140 161 1,000 -250 Descending Tampa TRACON
Tue 11:24:22 AM 27.7500 -82.6500 42° Northeast 106 122 700 -300 Descending Tampa TRACON
Tue 11:25:22 AM 27.7667 -82.6333 360° North 76 87 400 -150 Descending Tampa TRACON
Tue 11:26:22 AM 27.7667 -82.6333 360° North 76 87 400  Level Tampa TRACON
Tue 11:27:22 AM 27.7667 -82.6333 360° North 76 87 400  Level Tampa TRACON
Tue 11:28:22 AM 27.7667 -82.6333 360° North 76 87 400  Level Tampa TRACON

Login

Don't have an account? Register now (free) for customized features, flight alerts, and more!